sensor_id;sensor_type;location;lat;lon;timestamp;P1;durP1;ratioP1;P2;durP2;ratioP2
15449;SDS011;7826;49.784;9.934;2023-03-03T00:01:13;12.27;;;6.97;;
15449;SDS011;7826;49.784;9.934;2023-03-03T00:03:40;10.67;;;6.07;;
15449;SDS011;7826;49.784;9.934;2023-03-03T00:06:08;17.00;;;6.70;;
15449;SDS011;7826;49.784;9.934;2023-03-03T00:08:36;10.17;;;5.77;;
15449;SDS011;7826;49.784;9.934;2023-03-03T00:11:03;12.00;;;5.87;;
15449;SDS011;7826;49.784;9.934;2023-03-03T00:13:31;12.10;;;6.00;;
15449;SDS011;7826;49.784;9.934;2023-03-03T00:16:16;11.73;;;5.60;;
15449;SDS011;7826;49.784;9.934;2023-03-03T00:18:55;11.93;;;6.47;;
15449;SDS011;7826;49.784;9.934;2023-03-03T00:24:33;13.83;;;6.77;;
15449;SDS011;7826;49.784;9.934;2023-03-03T00:26:54;12.70;;;6.57;;
15449;SDS011;7826;49.784;9.934;2023-03-03T00:34:40;16.00;;;6.83;;
15449;SDS011;7826;49.784;9.934;2023-03-03T00:37:41;11.17;;;5.97;;
15449;SDS011;7826;49.784;9.934;2023-03-03T00:42:48;10.57;;;6.17;;
15449;SDS011;7826;49.784;9.934;2023-03-03T00:50:45;9.50;;;5.43;;
15449;SDS011;7826;49.784;9.934;2023-03-03T00:53:12;10.50;;;6.67;;
15449;SDS011;7826;49.784;9.934;2023-03-03T00:55:42;15.87;;;6.57;;
15449;SDS011;7826;49.784;9.934;2023-03-03T00:58:10;11.13;;;6.00;;
15449;SDS011;7826;49.784;9.934;2023-03-03T01:00:36;11.00;;;6.40;;
15449;SDS011;7826;49.784;9.934;2023-03-03T01:03:04;10.13;;;5.40;;
15449;SDS011;7826;49.784;9.934;2023-03-03T01:05:31;10.67;;;6.07;;
15449;SDS011;7826;49.784;9.934;2023-03-03T01:07:58;12.97;;;5.57;;
15449;SDS011;7826;49.784;9.934;2023-03-03T01:10:25;11.20;;;5.80;;
15449;SDS011;7826;49.784;9.934;2023-03-03T01:12:53;7.73;;;5.23;;
15449;SDS011;7826;49.784;9.934;2023-03-03T01:15:20;12.03;;;6.17;;
15449;SDS011;7826;49.784;9.934;2023-03-03T01:17:46;13.17;;;6.93;;
15449;SDS011;7826;49.784;9.934;2023-03-03T01:20:13;12.43;;;6.30;;
15449;SDS011;7826;49.784;9.934;2023-03-03T01:22:40;10.00;;;6.07;;
15449;SDS011;7826;49.784;9.934;2023-03-03T01:25:07;11.57;;;6.63;;
15449;SDS011;7826;49.784;9.934;2023-03-03T01:27:34;11.07;;;5.50;;
15449;SDS011;7826;49.784;9.934;2023-03-03T01:30:02;11.33;;;5.60;;
15449;SDS011;7826;49.784;9.934;2023-03-03T01:32:29;11.73;;;5.93;;
15449;SDS011;7826;49.784;9.934;2023-03-03T01:34:56;16.70;;;6.50;;
15449;SDS011;7826;49.784;9.934;2023-03-03T01:37:22;10.63;;;5.20;;
15449;SDS011;7826;49.784;9.934;2023-03-03T01:39:52;13.80;;;6.10;;
15449;SDS011;7826;49.784;9.934;2023-03-03T01:42:19;8.10;;;4.70;;
15449;SDS011;7826;49.784;9.934;2023-03-03T01:44:46;13.27;;;6.50;;
15449;SDS011;7826;49.784;9.934;2023-03-03T01:47:20;12.90;;;5.47;;
15449;SDS011;7826;49.784;9.934;2023-03-03T01:50:00;14.30;;;6.20;;
15449;SDS011;7826;49.784;9.934;2023-03-03T01:52:40;13.07;;;5.73;;
15449;SDS011;7826;49.784;9.934;2023-03-03T01:55:31;9.90;;;5.67;;
15449;SDS011;7826;49.784;9.934;2023-03-03T01:58:00;13.93;;;5.77;;
15449;SDS011;7826;49.784;9.934;2023-03-03T02:00:34;12.67;;;6.73;;
15449;SDS011;7826;49.784;9.934;2023-03-03T02:03:03;10.90;;;5.77;;
15449;SDS011;7826;49.784;9.934;2023-03-03T02:05:30;11.83;;;6.37;;
15449;SDS011;7826;49.784;9.934;2023-03-03T02:07:57;10.40;;;5.27;;
15449;SDS011;7826;49.784;9.934;2023-03-03T02:10:23;13.57;;;6.07;;
15449;SDS011;7826;49.784;9.934;2023-03-03T02:12:51;16.67;;;6.27;;
15449;SDS011;7826;49.784;9.934;2023-03-03T02:15:29;11.20;;;5.53;;
15449;SDS011;7826;49.784;9.934;2023-03-03T02:17:58;14.00;;;6.43;;
15449;SDS011;7826;49.784;9.934;2023-03-03T02:23:15;9.13;;;5.30;;
15449;SDS011;7826;49.784;9.934;2023-03-03T02:28:10;9.47;;;4.87;;
15449;SDS011;7826;49.784;9.934;2023-03-03T02:30:37;11.57;;;6.13;;
15449;SDS011;7826;49.784;9.934;2023-03-03T02:33:04;11.67;;;5.77;;
15449;SDS011;7826;49.784;9.934;2023-03-03T02:35:33;9.67;;;5.03;;
15449;SDS011;7826;49.784;9.934;2023-03-03T02:41:07;13.43;;;6.50;;
15449;SDS011;7826;49.784;9.934;2023-03-03T02:46:09;12.17;;;5.53;;
15449;SDS011;7826;49.784;9.934;2023-03-03T02:48:36;10.07;;;4.93;;
15449;SDS011;7826;49.784;9.934;2023-03-03T02:51:02;12.80;;;6.33;;
15449;SDS011;7826;49.784;9.934;2023-03-03T02:53:29;12.37;;;5.80;;
15449;SDS011;7826;49.784;9.934;2023-03-03T02:55:55;8.73;;;5.33;;
15449;SDS011;7826;49.784;9.934;2023-03-03T02:58:21;13.60;;;6.27;;
15449;SDS011;7826;49.784;9.934;2023-03-03T03:00:47;12.47;;;6.60;;
15449;SDS011;7826;49.784;9.934;2023-03-03T03:03:14;10.53;;;5.77;;
15449;SDS011;7826;49.784;9.934;2023-03-03T03:05:40;10.87;;;6.70;;
15449;SDS011;7826;49.784;9.934;2023-03-03T03:08:06;12.90;;;5.97;;
15449;SDS011;7826;49.784;9.934;2023-03-03T03:10:33;10.33;;;5.03;;
15449;SDS011;7826;49.784;9.934;2023-03-03T03:13:00;15.40;;;6.07;;
15449;SDS011;7826;49.784;9.934;2023-03-03T03:15:27;13.30;;;5.73;;
15449;SDS011;7826;49.784;9.934;2023-03-03T03:17:53;15.20;;;6.50;;
15449;SDS011;7826;49.784;9.934;2023-03-03T03:20:20;11.43;;;6.10;;
15449;SDS011;7826;49.784;9.934;2023-03-03T03:22:47;10.60;;;5.57;;
15449;SDS011;7826;49.784;9.934;2023-03-03T03:25:13;14.17;;;6.07;;
15449;SDS011;7826;49.784;9.934;2023-03-03T03:27:39;9.20;;;5.63;;
15449;SDS011;7826;49.784;9.934;2023-03-03T03:30:05;10.70;;;5.17;;
15449;SDS011;7826;49.784;9.934;2023-03-03T03:32:32;9.73;;;6.27;;
15449;SDS011;7826;49.784;9.934;2023-03-03T03:34:59;11.17;;;6.40;;
15449;SDS011;7826;49.784;9.934;2023-03-03T03:37:25;13.13;;;6.30;;
15449;SDS011;7826;49.784;9.934;2023-03-03T03:39:51;11.10;;;6.13;;
15449;SDS011;7826;49.784;9.934;2023-03-03T03:42:18;12.27;;;6.00;;
15449;SDS011;7826;49.784;9.934;2023-03-03T03:44:45;13.50;;;7.07;;
15449;SDS011;7826;49.784;9.934;2023-03-03T03:47:11;10.57;;;5.27;;
15449;SDS011;7826;49.784;9.934;2023-03-03T03:49:40;13.27;;;6.37;;
15449;SDS011;7826;49.784;9.934;2023-03-03T03:52:06;15.40;;;6.10;;
15449;SDS011;7826;49.784;9.934;2023-03-03T03:54:32;11.27;;;5.87;;
15449;SDS011;7826;49.784;9.934;2023-03-03T03:56:59;11.40;;;6.10;;
15449;SDS011;7826;49.784;9.934;2023-03-03T03:59:25;13.70;;;6.50;;
15449;SDS011;7826;49.784;9.934;2023-03-03T04:01:51;10.83;;;6.37;;
15449;SDS011;7826;49.784;9.934;2023-03-03T04:04:17;15.33;;;6.47;;
15449;SDS011;7826;49.784;9.934;2023-03-03T04:06:44;12.30;;;6.43;;
15449;SDS011;7826;49.784;9.934;2023-03-03T04:09:10;11.33;;;5.37;;
15449;SDS011;7826;49.784;9.934;2023-03-03T04:11:36;11.27;;;6.00;;
15449;SDS011;7826;49.784;9.934;2023-03-03T04:14:03;10.23;;;5.70;;
15449;SDS011;7826;49.784;9.934;2023-03-03T04:16:29;15.60;;;6.57;;
15449;SDS011;7826;49.784;9.934;2023-03-03T04:18:55;20.50;;;7.03;;
15449;SDS011;7826;49.784;9.934;2023-03-03T04:21:21;12.10;;;6.40;;
15449;SDS011;7826;49.784;9.934;2023-03-03T04:23:47;12.77;;;5.60;;
15449;SDS011;7826;49.784;9.934;2023-03-03T04:26:14;11.93;;;6.60;;
15449;SDS011;7826;49.784;9.934;2023-03-03T04:28:40;15.93;;;6.60;;
15449;SDS011;7826;49.784;9.934;2023-03-03T04:31:06;16.37;;;6.73;;
15449;SDS011;7826;49.784;9.934;2023-03-03T04:33:33;14.50;;;6.87;;
15449;SDS011;7826;49.784;9.934;2023-03-03T04:35:59;13.20;;;5.97;;
15449;SDS011;7826;49.784;9.934;2023-03-03T04:38:25;10.50;;;5.83;;
15449;SDS011;7826;49.784;9.934;2023-03-03T04:40:51;15.40;;;6.90;;
15449;SDS011;7826;49.784;9.934;2023-03-03T04:43:18;11.60;;;5.87;;
15449;SDS011;7826;49.784;9.934;2023-03-03T04:45:44;14.40;;;7.17;;
15449;SDS011;7826;49.784;9.934;2023-03-03T04:48:10;13.17;;;6.00;;
15449;SDS011;7826;49.784;9.934;2023-03-03T04:50:54;8.53;;;5.37;;
15449;SDS011;7826;49.784;9.934;2023-03-03T04:53:21;11.90;;;5.53;;
15449;SDS011;7826;49.784;9.934;2023-03-03T04:55:51;9.23;;;5.27;;
15449;SDS011;7826;49.784;9.934;2023-03-03T04:58:18;12.03;;;5.67;;
15449;SDS011;7826;49.784;9.934;2023-03-03T05:00:45;11.47;;;5.40;;
15449;SDS011;7826;49.784;9.934;2023-03-03T05:03:12;14.53;;;6.53;;
15449;SDS011;7826;49.784;9.934;2023-03-03T05:05:39;12.97;;;5.67;;
15449;SDS011;7826;49.784;9.934;2023-03-03T05:08:05;12.33;;;6.37;;
15449;SDS011;7826;49.784;9.934;2023-03-03T05:10:31;13.13;;;6.20;;
15449;SDS011;7826;49.784;9.934;2023-03-03T05:12:57;12.37;;;6.40;;
15449;SDS011;7826;49.784;9.934;2023-03-03T05:15:24;12.60;;;6.83;;
15449;SDS011;7826;49.784;9.934;2023-03-03T05:17:50;9.90;;;5.73;;
15449;SDS011;7826;49.784;9.934;2023-03-03T05:20:17;11.97;;;6.70;;
15449;SDS011;7826;49.784;9.934;2023-03-03T05:22:44;11.93;;;6.30;;
15449;SDS011;7826;49.784;9.934;2023-03-03T05:25:10;12.53;;;5.93;;
15449;SDS011;7826;49.784;9.934;2023-03-03T05:27:37;15.27;;;6.63;;
15449;SDS011;7826;49.784;9.934;2023-03-03T05:30:04;11.93;;;5.60;;
15449;SDS011;7826;49.784;9.934;2023-03-03T05:32:31;10.40;;;6.37;;
15449;SDS011;7826;49.784;9.934;2023-03-03T05:34:57;11.73;;;6.13;;
15449;SDS011;7826;49.784;9.934;2023-03-03T05:37:24;15.10;;;6.87;;
15449;SDS011;7826;49.784;9.934;2023-03-03T05:39:50;15.17;;;7.63;;
15449;SDS011;7826;49.784;9.934;2023-03-03T05:42:16;10.73;;;6.30;;
15449;SDS011;7826;49.784;9.934;2023-03-03T05:44:43;12.87;;;6.63;;
15449;SDS011;7826;49.784;9.934;2023-03-03T05:47:09;11.97;;;7.00;;
15449;SDS011;7826;49.784;9.934;2023-03-03T05:49:35;17.27;;;7.20;;
15449;SDS011;7826;49.784;9.934;2023-03-03T05:52:02;19.07;;;7.60;;
15449;SDS011;7826;49.784;9.934;2023-03-03T05:54:28;15.43;;;6.20;;
15449;SDS011;7826;49.784;9.934;2023-03-03T05:56:55;11.27;;;6.13;;
15449;SDS011;7826;49.784;9.934;2023-03-03T05:59:22;12.97;;;6.73;;
15449;SDS011;7826;49.784;9.934;2023-03-03T06:01:49;12.57;;;6.87;;
15449;SDS011;7826;49.784;9.934;2023-03-03T06:04:15;11.00;;;5.80;;
15449;SDS011;7826;49.784;9.934;2023-03-03T06:06:41;12.63;;;5.97;;
15449;SDS011;7826;49.784;9.934;2023-03-03T06:09:07;13.00;;;7.17;;
15449;SDS011;7826;49.784;9.934;2023-03-03T06:11:34;15.37;;;7.03;;
15449;SDS011;7826;49.784;9.934;2023-03-03T06:14:02;12.20;;;6.70;;
15449;SDS011;7826;49.784;9.934;2023-03-03T06:16:28;12.43;;;6.77;;
15449;SDS011;7826;49.784;9.934;2023-03-03T06:18:54;12.43;;;7.13;;
15449;SDS011;7826;49.784;9.934;2023-03-03T06:21:20;11.93;;;6.27;;
15449;SDS011;7826;49.784;9.934;2023-03-03T06:23:47;13.80;;;6.53;;
15449;SDS011;7826;49.784;9.934;2023-03-03T06:26:13;11.80;;;7.00;;
15449;SDS011;7826;49.784;9.934;2023-03-03T06:28:39;12.90;;;6.70;;
15449;SDS011;7826;49.784;9.934;2023-03-03T06:31:05;15.33;;;7.47;;
15449;SDS011;7826;49.784;9.934;2023-03-03T06:33:31;19.33;;;7.13;;
15449;SDS011;7826;49.784;9.934;2023-03-03T06:35:58;15.60;;;6.77;;
15449;SDS011;7826;49.784;9.934;2023-03-03T06:38:24;12.60;;;6.93;;
15449;SDS011;7826;49.784;9.934;2023-03-03T06:40:51;15.87;;;7.07;;
15449;SDS011;7826;49.784;9.934;2023-03-03T06:43:17;16.50;;;7.83;;
15449;SDS011;7826;49.784;9.934;2023-03-03T06:45:43;13.17;;;7.83;;
15449;SDS011;7826;49.784;9.934;2023-03-03T06:48:10;11.47;;;6.47;;
15449;SDS011;7826;49.784;9.934;2023-03-03T06:50:36;14.87;;;7.67;;
15449;SDS011;7826;49.784;9.934;2023-03-03T06:53:10;19.00;;;8.73;;
15449;SDS011;7826;49.784;9.934;2023-03-03T06:55:38;15.20;;;7.13;;
15449;SDS011;7826;49.784;9.934;2023-03-03T06:58:10;14.60;;;8.10;;
15449;SDS011;7826;49.784;9.934;2023-03-03T07:00:43;10.97;;;6.47;;
15449;SDS011;7826;49.784;9.934;2023-03-03T07:03:14;13.37;;;7.33;;
15449;SDS011;7826;49.784;9.934;2023-03-03T07:05:47;15.90;;;7.67;;
15449;SDS011;7826;49.784;9.934;2023-03-03T07:08:15;15.30;;;7.33;;
15449;SDS011;7826;49.784;9.934;2023-03-03T07:10:43;15.27;;;7.73;;
15449;SDS011;7826;49.784;9.934;2023-03-03T07:13:17;16.70;;;7.60;;
15449;SDS011;7826;49.784;9.934;2023-03-03T07:15:44;23.57;;;7.87;;
15449;SDS011;7826;49.784;9.934;2023-03-03T07:23:41;17.20;;;8.13;;
15449;SDS011;7826;49.784;9.934;2023-03-03T07:26:10;15.13;;;7.47;;
15449;SDS011;7826;49.784;9.934;2023-03-03T07:28:42;16.07;;;8.10;;
15449;SDS011;7826;49.784;9.934;2023-03-03T07:31:55;17.23;;;9.13;;
15449;SDS011;7826;49.784;9.934;2023-03-03T07:34:01;18.47;;;8.03;;
15449;SDS011;7826;49.784;9.934;2023-03-03T07:36:42;13.67;;;7.13;;
15449;SDS011;7826;49.784;9.934;2023-03-03T07:39:17;20.73;;;8.33;;
15449;SDS011;7826;49.784;9.934;2023-03-03T07:41:46;20.93;;;8.07;;
15449;SDS011;7826;49.784;9.934;2023-03-03T07:44:22;14.63;;;7.93;;
15449;SDS011;7826;49.784;9.934;2023-03-03T07:47:18;14.00;;;7.90;;
15449;SDS011;7826;49.784;9.934;2023-03-03T07:49:47;17.37;;;9.03;;
15449;SDS011;7826;49.784;9.934;2023-03-03T07:52:31;10.93;;;6.63;;
15449;SDS011;7826;49.784;9.934;2023-03-03T07:57:56;14.60;;;8.07;;
15449;SDS011;7826;49.784;9.934;2023-03-03T08:02:57;18.00;;;8.97;;
15449;SDS011;7826;49.784;9.934;2023-03-03T08:05:30;17.10;;;8.77;;
15449;SDS011;7826;49.784;9.934;2023-03-03T08:10:56;19.93;;;9.57;;
15449;SDS011;7826;49.784;9.934;2023-03-03T08:18:33;16.27;;;8.60;;
15449;SDS011;7826;49.784;9.934;2023-03-03T08:21:06;19.87;;;9.10;;
15449;SDS011;7826;49.784;9.934;2023-03-03T08:24:00;15.47;;;8.93;;
15449;SDS011;7826;49.784;9.934;2023-03-03T08:26:26;16.03;;;8.93;;
15449;SDS011;7826;49.784;9.934;2023-03-03T08:28:53;15.63;;;8.97;;
15449;SDS011;7826;49.784;9.934;2023-03-03T08:31:20;16.40;;;9.70;;
15449;SDS011;7826;49.784;9.934;2023-03-03T08:33:46;18.53;;;10.13;;
15449;SDS011;7826;49.784;9.934;2023-03-03T08:36:13;16.37;;;9.53;;
15449;SDS011;7826;49.784;9.934;2023-03-03T08:38:39;16.93;;;9.60;;
15449;SDS011;7826;49.784;9.934;2023-03-03T08:41:05;17.83;;;9.57;;
15449;SDS011;7826;49.784;9.934;2023-03-03T08:43:32;15.80;;;8.80;;
15449;SDS011;7826;49.784;9.934;2023-03-03T08:45:59;18.37;;;10.03;;
15449;SDS011;7826;49.784;9.934;2023-03-03T08:48:26;18.40;;;9.53;;
15449;SDS011;7826;49.784;9.934;2023-03-03T08:50:53;20.27;;;10.03;;
15449;SDS011;7826;49.784;9.934;2023-03-03T08:53:20;16.60;;;9.47;;
15449;SDS011;7826;49.784;9.934;2023-03-03T08:55:47;15.87;;;9.13;;
15449;SDS011;7826;49.784;9.934;2023-03-03T08:58:15;13.47;;;8.50;;
15449;SDS011;7826;49.784;9.934;2023-03-03T09:00:44;16.13;;;10.17;;
15449;SDS011;7826;49.784;9.934;2023-03-03T09:03:11;18.43;;;9.87;;
15449;SDS011;7826;49.784;9.934;2023-03-03T09:05:37;17.00;;;8.93;;
15449;SDS011;7826;49.784;9.934;2023-03-03T09:08:05;17.23;;;10.07;;
15449;SDS011;7826;49.784;9.934;2023-03-03T09:10:33;22.73;;;10.00;;
15449;SDS011;7826;49.784;9.934;2023-03-03T09:13:09;21.33;;;10.53;;
15449;SDS011;7826;49.784;9.934;2023-03-03T09:15:40;16.13;;;9.33;;
15449;SDS011;7826;49.784;9.934;2023-03-03T09:20:40;15.63;;;8.90;;
15449;SDS011;7826;49.784;9.934;2023-03-03T09:26:40;19.13;;;10.13;;
15449;SDS011;7826;49.784;9.934;2023-03-03T09:37:01;16.63;;;9.93;;
15449;SDS011;7826;49.784;9.934;2023-03-03T09:39:48;19.97;;;10.30;;
15449;SDS011;7826;49.784;9.934;2023-03-03T09:47:59;19.23;;;11.13;;
15449;SDS011;7826;49.784;9.934;2023-03-03T09:50:30;17.13;;;9.20;;
15449;SDS011;7826;49.784;9.934;2023-03-03T10:00:57;17.83;;;10.13;;
15449;SDS011;7826;49.784;9.934;2023-03-03T10:12:18;18.23;;;9.17;;
15449;SDS011;7826;49.784;9.934;2023-03-03T10:15:15;14.47;;;8.40;;
15449;SDS011;7826;49.784;9.934;2023-03-03T10:25:55;15.40;;;8.80;;
15449;SDS011;7826;49.784;9.934;2023-03-03T10:36:21;20.07;;;9.60;;
15449;SDS011;7826;49.784;9.934;2023-03-03T10:50:20;19.03;;;9.63;;
15449;SDS011;7826;49.784;9.934;2023-03-03T11:01:56;15.37;;;7.97;;
15449;SDS011;7826;49.784;9.934;2023-03-03T11:07:14;20.37;;;10.27;;
15449;SDS011;7826;49.784;9.934;2023-03-03T11:12:57;20.17;;;9.47;;
15449;SDS011;7826;49.784;9.934;2023-03-03T11:15:49;14.83;;;9.13;;
15449;SDS011;7826;49.784;9.934;2023-03-03T11:18:48;18.63;;;9.03;;
15449;SDS011;7826;49.784;9.934;2023-03-03T11:21:28;16.60;;;8.30;;
15449;SDS011;7826;49.784;9.934;2023-03-03T11:31:56;15.73;;;8.97;;
15449;SDS011;7826;49.784;9.934;2023-03-03T11:40:36;14.00;;;7.80;;
15449;SDS011;7826;49.784;9.934;2023-03-03T11:43:29;13.63;;;8.00;;
15449;SDS011;7826;49.784;9.934;2023-03-03T11:46:18;16.67;;;8.10;;
15449;SDS011;7826;49.784;9.934;2023-03-03T11:48:59;16.60;;;8.47;;
15449;SDS011;7826;49.784;9.934;2023-03-03T11:51:45;12.67;;;8.07;;
15449;SDS011;7826;49.784;9.934;2023-03-03T11:57:04;16.60;;;8.13;;
15449;SDS011;7826;49.784;9.934;2023-03-03T11:59:41;13.53;;;7.97;;
15449;SDS011;7826;49.784;9.934;2023-03-03T12:04:47;13.40;;;7.33;;
15449;SDS011;7826;49.784;9.934;2023-03-03T12:13:01;15.17;;;7.33;;
15449;SDS011;7826;49.784;9.934;2023-03-03T12:15:38;14.50;;;8.43;;
15449;SDS011;7826;49.784;9.934;2023-03-03T12:18:31;14.53;;;7.63;;
15449;SDS011;7826;49.784;9.934;2023-03-03T12:40:33;17.10;;;8.37;;
15449;SDS011;7826;49.784;9.934;2023-03-03T12:48:48;11.73;;;7.33;;
15449;SDS011;7826;49.784;9.934;2023-03-03T12:51:33;17.57;;;8.97;;
15449;SDS011;7826;49.784;9.934;2023-03-03T12:56:52;17.10;;;7.73;;
15449;SDS011;7826;49.784;9.934;2023-03-03T13:00:24;14.63;;;8.30;;
15449;SDS011;7826;49.784;9.934;2023-03-03T13:02:32;15.87;;;8.00;;
15449;SDS011;7826;49.784;9.934;2023-03-03T13:05:22;18.00;;;8.23;;
15449;SDS011;7826;49.784;9.934;2023-03-03T13:10:50;13.77;;;7.90;;
15449;SDS011;7826;49.784;9.934;2023-03-03T13:13:32;15.17;;;7.73;;
15449;SDS011;7826;49.784;9.934;2023-03-03T13:16:01;14.70;;;7.80;;
15449;SDS011;7826;49.784;9.934;2023-03-03T13:21:35;14.93;;;7.87;;
15449;SDS011;7826;49.784;9.934;2023-03-03T13:27:07;14.67;;;7.87;;
15449;SDS011;7826;49.784;9.934;2023-03-03T13:29:41;13.63;;;7.60;;
15449;SDS011;7826;49.784;9.934;2023-03-03T13:32:22;12.03;;;6.90;;
15449;SDS011;7826;49.784;9.934;2023-03-03T13:37:34;13.70;;;8.10;;
15449;SDS011;7826;49.784;9.934;2023-03-03T13:50:56;15.17;;;7.53;;
15449;SDS011;7826;49.784;9.934;2023-03-03T13:56:27;12.70;;;6.80;;
15449;SDS011;7826;49.784;9.934;2023-03-03T13:59:14;11.43;;;6.73;;
15449;SDS011;7826;49.784;9.934;2023-03-03T14:02:18;13.37;;;6.73;;
15449;SDS011;7826;49.784;9.934;2023-03-03T14:05:01;12.50;;;7.07;;
15449;SDS011;7826;49.784;9.934;2023-03-03T14:13:10;11.90;;;6.33;;
15449;SDS011;7826;49.784;9.934;2023-03-03T14:15:50;10.77;;;6.17;;
15449;SDS011;7826;49.784;9.934;2023-03-03T14:18:29;13.43;;;6.87;;
15449;SDS011;7826;49.784;9.934;2023-03-03T14:21:25;12.93;;;6.70;;
15449;SDS011;7826;49.784;9.934;2023-03-03T14:26:35;10.07;;;5.03;;
15449;SDS011;7826;49.784;9.934;2023-03-03T14:31:53;12.47;;;5.27;;
15449;SDS011;7826;49.784;9.934;2023-03-03T14:34:37;9.03;;;5.17;;
15449;SDS011;7826;49.784;9.934;2023-03-03T14:37:20;11.03;;;5.33;;
15449;SDS011;7826;49.784;9.934;2023-03-03T14:40:18;7.80;;;4.50;;
15449;SDS011;7826;49.784;9.934;2023-03-03T14:42:55;10.20;;;5.57;;
15449;SDS011;7826;49.784;9.934;2023-03-03T14:55:43;8.10;;;5.10;;
15449;SDS011;7826;49.784;9.934;2023-03-03T15:03:34;5.73;;;4.37;;
15449;SDS011;7826;49.784;9.934;2023-03-03T15:06:10;8.67;;;4.70;;
15449;SDS011;7826;49.784;9.934;2023-03-03T15:08:38;11.30;;;5.40;;
15449;SDS011;7826;49.784;9.934;2023-03-03T15:11:13;8.40;;;4.80;;
15449;SDS011;7826;49.784;9.934;2023-03-03T15:13:42;8.63;;;5.17;;
15449;SDS011;7826;49.784;9.934;2023-03-03T15:16:22;8.90;;;5.27;;
15449;SDS011;7826;49.784;9.934;2023-03-03T15:24:33;7.63;;;4.47;;
15449;SDS011;7826;49.784;9.934;2023-03-03T15:27:17;8.43;;;5.17;;
15449;SDS011;7826;49.784;9.934;2023-03-03T15:30:01;8.63;;;4.47;;
15449;SDS011;7826;49.784;9.934;2023-03-03T15:38:41;9.93;;;4.90;;
15449;SDS011;7826;49.784;9.934;2023-03-03T15:46:59;7.50;;;4.13;;
15449;SDS011;7826;49.784;9.934;2023-03-03T15:57:52;9.27;;;4.80;;
15449;SDS011;7826;49.784;9.934;2023-03-03T16:03:04;15.43;;;5.47;;
15449;SDS011;7826;49.784;9.934;2023-03-03T16:08:40;10.43;;;5.17;;
15449;SDS011;7826;49.784;9.934;2023-03-03T16:11:27;9.03;;;4.80;;
15449;SDS011;7826;49.784;9.934;2023-03-03T16:14:21;7.83;;;4.47;;
15449;SDS011;7826;49.784;9.934;2023-03-03T16:19:45;9.90;;;4.83;;
15449;SDS011;7826;49.784;9.934;2023-03-03T16:28:49;8.13;;;4.60;;
15449;SDS011;7826;49.784;9.934;2023-03-03T16:31:49;9.90;;;5.23;;
15449;SDS011;7826;49.784;9.934;2023-03-03T16:37:41;7.13;;;4.47;;
15449;SDS011;7826;49.784;9.934;2023-03-03T16:40:36;10.70;;;4.03;;
15449;SDS011;7826;49.784;9.934;2023-03-03T16:46:15;10.35;;;5.82;;
15449;SDS011;7826;49.784;9.934;2023-03-03T16:57:36;9.90;;;5.30;;
15449;SDS011;7826;49.784;9.934;2023-03-03T17:01:13;7.63;;;4.47;;
15449;SDS011;7826;49.784;9.934;2023-03-03T17:03:27;7.33;;;3.93;;
15449;SDS011;7826;49.784;9.934;2023-03-03T17:06:09;8.57;;;4.17;;
15449;SDS011;7826;49.784;9.934;2023-03-03T17:08:48;9.70;;;4.97;;
15449;SDS011;7826;49.784;9.934;2023-03-03T17:14:11;8.53;;;4.40;;
15449;SDS011;7826;49.784;9.934;2023-03-03T17:17:10;9.33;;;5.77;;
15449;SDS011;7826;49.784;9.934;2023-03-03T17:23:26;12.53;;;7.50;;
15449;SDS011;7826;49.784;9.934;2023-03-03T17:29:07;8.87;;;4.33;;
15449;SDS011;7826;49.784;9.934;2023-03-03T17:50:27;10.67;;;4.23;;
15449;SDS011;7826;49.784;9.934;2023-03-03T17:59:14;7.10;;;4.13;;
15449;SDS011;7826;49.784;9.934;2023-03-03T18:04:37;7.60;;;4.23;;
15449;SDS011;7826;49.784;9.934;2023-03-03T18:18:20;7.67;;;3.87;;
15449;SDS011;7826;49.784;9.934;2023-03-03T18:21:15;6.23;;;4.07;;
15449;SDS011;7826;49.784;9.934;2023-03-03T18:23:45;6.67;;;4.17;;
15449;SDS011;7826;49.784;9.934;2023-03-03T18:26:31;5.90;;;4.13;;
15449;SDS011;7826;49.784;9.934;2023-03-03T18:31:45;10.93;;;4.37;;
15449;SDS011;7826;49.784;9.934;2023-03-03T18:36:50;7.27;;;4.03;;
15449;SDS011;7826;49.784;9.934;2023-03-03T18:39:38;6.07;;;3.97;;
15449;SDS011;7826;49.784;9.934;2023-03-03T18:44:42;9.70;;;4.33;;
15449;SDS011;7826;49.784;9.934;2023-03-03T18:47:10;6.77;;;4.13;;
15449;SDS011;7826;49.784;9.934;2023-03-03T18:52:13;7.03;;;4.00;;
15449;SDS011;7826;49.784;9.934;2023-03-03T18:55:38;9.00;;;4.20;;
15449;SDS011;7826;49.784;9.934;2023-03-03T18:57:34;6.90;;;3.60;;
15449;SDS011;7826;49.784;9.934;2023-03-03T19:02:40;8.37;;;4.07;;
15449;SDS011;7826;49.784;9.934;2023-03-03T19:05:17;9.80;;;4.13;;
15449;SDS011;7826;49.784;9.934;2023-03-03T19:15:53;8.47;;;4.07;;
15449;SDS011;7826;49.784;9.934;2023-03-03T19:18:25;6.87;;;3.53;;
15449;SDS011;7826;49.784;9.934;2023-03-03T19:20:57;6.17;;;3.70;;
15449;SDS011;7826;49.784;9.934;2023-03-03T19:31:37;6.63;;;4.30;;
15449;SDS011;7826;49.784;9.934;2023-03-03T19:36:52;9.03;;;4.47;;
15449;SDS011;7826;49.784;9.934;2023-03-03T19:42:29;7.10;;;4.33;;
15449;SDS011;7826;49.784;9.934;2023-03-03T19:48:33;5.23;;;4.03;;
15449;SDS011;7826;49.784;9.934;2023-03-03T19:51:11;9.93;;;4.80;;
15449;SDS011;7826;49.784;9.934;2023-03-03T19:56:40;8.73;;;4.50;;
15449;SDS011;7826;49.784;9.934;2023-03-03T20:05:36;8.35;;;4.63;;
15449;SDS011;7826;49.784;9.934;2023-03-03T20:07:54;5.73;;;3.37;;
15449;SDS011;7826;49.784;9.934;2023-03-03T20:13:24;5.57;;;3.70;;
15449;SDS011;7826;49.784;9.934;2023-03-03T20:23:51;6.43;;;4.37;;
15449;SDS011;7826;49.784;9.934;2023-03-03T20:31:44;7.87;;;3.83;;
15449;SDS011;7826;49.784;9.934;2023-03-03T20:51:04;7.50;;;3.77;;
15449;SDS011;7826;49.784;9.934;2023-03-03T20:53:35;8.20;;;4.47;;
15449;SDS011;7826;49.784;9.934;2023-03-03T20:56:27;9.60;;;4.00;;
15449;SDS011;7826;49.784;9.934;2023-03-03T21:10:20;6.23;;;4.03;;
15449;SDS011;7826;49.784;9.934;2023-03-03T21:12:50;6.20;;;3.87;;
15449;SDS011;7826;49.784;9.934;2023-03-03T21:15:30;5.83;;;4.10;;
15449;SDS011;7826;49.784;9.934;2023-03-03T21:18:17;8.10;;;3.83;;
15449;SDS011;7826;49.784;9.934;2023-03-03T21:20:46;7.77;;;4.13;;
15449;SDS011;7826;49.784;9.934;2023-03-03T21:23:14;9.07;;;3.80;;
15449;SDS011;7826;49.784;9.934;2023-03-03T21:25:41;8.17;;;3.93;;
15449;SDS011;7826;49.784;9.934;2023-03-03T21:28:28;8.57;;;4.20;;
15449;SDS011;7826;49.784;9.934;2023-03-03T21:31:10;6.93;;;4.47;;
15449;SDS011;7826;49.784;9.934;2023-03-03T21:33:44;8.43;;;3.90;;
15449;SDS011;7826;49.784;9.934;2023-03-03T21:38:43;9.83;;;4.63;;
15449;SDS011;7826;49.784;9.934;2023-03-03T21:41:10;8.53;;;5.00;;
15449;SDS011;7826;49.784;9.934;2023-03-03T21:43:39;10.17;;;4.47;;
15449;SDS011;7826;49.784;9.934;2023-03-03T21:46:21;9.67;;;4.60;;
15449;SDS011;7826;49.784;9.934;2023-03-03T21:48:50;6.43;;;4.07;;
15449;SDS011;7826;49.784;9.934;2023-03-03T21:51:17;7.97;;;4.23;;
15449;SDS011;7826;49.784;9.934;2023-03-03T21:53:45;11.10;;;5.20;;
15449;SDS011;7826;49.784;9.934;2023-03-03T21:56:12;8.37;;;5.23;;
15449;SDS011;7826;49.784;9.934;2023-03-03T21:58:41;8.90;;;4.63;;
15449;SDS011;7826;49.784;9.934;2023-03-03T22:01:08;8.63;;;4.60;;
15449;SDS011;7826;49.784;9.934;2023-03-03T22:03:35;11.17;;;4.90;;
15449;SDS011;7826;49.784;9.934;2023-03-03T22:06:01;8.80;;;4.37;;
15449;SDS011;7826;49.784;9.934;2023-03-03T22:08:29;8.77;;;5.33;;
15449;SDS011;7826;49.784;9.934;2023-03-03T22:10:55;8.83;;;5.23;;
15449;SDS011;7826;49.784;9.934;2023-03-03T22:13:22;6.27;;;4.00;;
15449;SDS011;7826;49.784;9.934;2023-03-03T22:15:50;7.43;;;5.00;;
15449;SDS011;7826;49.784;9.934;2023-03-03T22:18:17;11.10;;;4.87;;
15449;SDS011;7826;49.784;9.934;2023-03-03T22:20:44;10.30;;;4.70;;
15449;SDS011;7826;49.784;9.934;2023-03-03T22:23:12;8.57;;;4.83;;
15449;SDS011;7826;49.784;9.934;2023-03-03T22:25:40;9.43;;;5.00;;
15449;SDS011;7826;49.784;9.934;2023-03-03T22:28:06;11.60;;;5.40;;